sensor_id;sensor_type;location;lat;lon;timestamp;pressure;altitude;pressure_sealevel;temperature;humidity
64687;BME280;51113;53.646;-113.674;2023-11-21T00:01:25;94830.16;;;-1.29;51.83
64687;BME280;51113;53.646;-113.674;2023-11-21T00:03:54;94853.56;;;-1.26;51.30
64687;BME280;51113;53.646;-113.674;2023-11-21T00:06:23;94848.63;;;-1.27;51.25
64687;BME280;51113;53.646;-113.674;2023-11-21T00:08:52;94840.03;;;-1.26;50.62
64687;BME280;51113;53.646;-113.674;2023-11-21T00:11:21;94844.00;;;-1.32;51.26
64687;BME280;51113;53.646;-113.674;2023-11-21T00:13:50;94841.13;;;-1.37;50.95
64687;BME280;51113;53.646;-113.674;2023-11-21T00:16:19;94838.75;;;-1.39;51.36
64687;BME280;51113;53.646;-113.674;2023-11-21T00:18:47;94842.88;;;-1.46;52.22
64687;BME280;51113;53.646;-113.674;2023-11-21T00:21:16;94837.16;;;-1.48;51.66
64687;BME280;51113;53.646;-113.674;2023-11-21T00:23:45;94828.69;;;-1.56;51.42
64687;BME280;51113;53.646;-113.674;2023-11-21T00:26:13;94799.22;;;-1.75;51.54
64687;BME280;51113;53.646;-113.674;2023-11-21T00:28:42;94782.97;;;-1.90;52.56
64687;BME280;51113;53.646;-113.674;2023-11-21T00:31:11;94796.38;;;-1.72;51.21
64687;BME280;51113;53.646;-113.674;2023-11-21T00:33:39;94766.75;;;-1.89;50.21
64687;BME280;51113;53.646;-113.674;2023-11-21T00:36:08;94773.72;;;-2.00;51.39
64687;BME280;51113;53.646;-113.674;2023-11-21T00:38:37;94801.56;;;-1.90;51.89
64687;BME280;51113;53.646;-113.674;2023-11-21T00:41:08;94780.38;;;-2.07;51.68
64687;BME280;51113;53.646;-113.674;2023-11-21T00:43:36;94812.06;;;-1.93;51.96
64687;BME280;51113;53.646;-113.674;2023-11-21T00:46:08;94785.75;;;-2.18;51.99
64687;BME280;51113;53.646;-113.674;2023-11-21T00:48:37;94819.84;;;-1.94;51.75
64687;BME280;51113;53.646;-113.674;2023-11-21T00:51:06;94819.53;;;-2.00;51.95
64687;BME280;51113;53.646;-113.674;2023-11-21T00:53:34;94809.81;;;-2.04;52.42
64687;BME280;51113;53.646;-113.674;2023-11-21T00:56:03;94802.63;;;-2.09;51.70
64687;BME280;51113;53.646;-113.674;2023-11-21T00:58:31;94790.88;;;-2.10;51.92
64687;BME280;51113;53.646;-113.674;2023-11-21T01:01:00;94791.63;;;-2.17;52.56
64687;BME280;51113;53.646;-113.674;2023-11-21T01:03:29;94796.88;;;-2.19;52.14
64687;BME280;51113;53.646;-113.674;2023-11-21T01:05:58;94812.63;;;-2.15;51.81
64687;BME280;51113;53.646;-113.674;2023-11-21T01:08:27;94780.28;;;-2.39;51.72
64687;BME280;51113;53.646;-113.674;2023-11-21T01:10:57;94797.19;;;-2.22;51.75
64687;BME280;51113;53.646;-113.674;2023-11-21T01:13:25;94803.44;;;-2.08;53.28
64687;BME280;51113;53.646;-113.674;2023-11-21T01:15:57;94808.22;;;-1.97;55.15
64687;BME280;51113;53.646;-113.674;2023-11-21T01:18:26;94814.94;;;-1.88;57.23
64687;BME280;51113;53.646;-113.674;2023-11-21T01:20:55;94782.91;;;-2.15;53.95
64687;BME280;51113;53.646;-113.674;2023-11-21T01:23:23;94786.34;;;-2.32;52.64
64687;BME280;51113;53.646;-113.674;2023-11-21T01:25:52;94782.94;;;-2.49;52.53
64687;BME280;51113;53.646;-113.674;2023-11-21T01:28:21;94776.72;;;-2.54;52.78
64687;BME280;51113;53.646;-113.674;2023-11-21T01:30:50;94800.63;;;-2.39;52.84
64687;BME280;51113;53.646;-113.674;2023-11-21T01:33:19;94810.78;;;-2.39;53.21
64687;BME280;51113;53.646;-113.674;2023-11-21T01:35:48;94817.75;;;-2.41;53.46
64687;BME280;51113;53.646;-113.674;2023-11-21T01:38:17;94776.81;;;-2.64;53.52
64687;BME280;51113;53.646;-113.674;2023-11-21T01:40:46;94799.63;;;-2.46;53.10
64687;BME280;51113;53.646;-113.674;2023-11-21T01:43:14;94783.59;;;-2.73;53.30
64687;BME280;51113;53.646;-113.674;2023-11-21T01:45:43;94776.94;;;-2.74;53.16
64687;BME280;51113;53.646;-113.674;2023-11-21T01:48:13;94779.13;;;-2.79;53.57
64687;BME280;51113;53.646;-113.674;2023-11-21T01:50:43;94790.28;;;-2.72;53.34
64687;BME280;51113;53.646;-113.674;2023-11-21T01:53:13;94785.81;;;-2.78;54.95
64687;BME280;51113;53.646;-113.674;2023-11-21T01:55:42;94807.47;;;-2.66;53.99
64687;BME280;51113;53.646;-113.674;2023-11-21T01:58:12;94799.66;;;-2.72;53.46
64687;BME280;51113;53.646;-113.674;2023-11-21T02:00:42;94799.94;;;-2.75;53.66
64687;BME280;51113;53.646;-113.674;2023-11-21T02:03:11;94771.31;;;-2.85;53.26
64687;BME280;51113;53.646;-113.674;2023-11-21T02:05:40;94796.16;;;-2.71;53.77
64687;BME280;51113;53.646;-113.674;2023-11-21T02:08:09;94788.34;;;-2.78;54.16
64687;BME280;51113;53.646;-113.674;2023-11-21T02:10:37;94750.75;;;-3.00;53.64
64687;BME280;51113;53.646;-113.674;2023-11-21T02:13:06;94746.31;;;-2.98;54.53
64687;BME280;51113;53.646;-113.674;2023-11-21T02:15:35;94742.03;;;-2.98;53.97
64687;BME280;51113;53.646;-113.674;2023-11-21T02:18:04;94757.22;;;-2.80;53.68
64687;BME280;51113;53.646;-113.674;2023-11-21T02:20:34;94745.56;;;-2.90;54.18
64687;BME280;51113;53.646;-113.674;2023-11-21T02:23:05;94748.94;;;-2.82;54.23
64687;BME280;51113;53.646;-113.674;2023-11-21T02:25:34;94745.56;;;-2.90;54.18
64687;BME280;51113;53.646;-113.674;2023-11-21T02:28:05;94754.31;;;-2.85;54.16
64687;BME280;51113;53.646;-113.674;2023-11-21T02:30:35;94757.81;;;-2.86;54.16
64687;BME280;51113;53.646;-113.674;2023-11-21T02:33:05;94747.34;;;-2.83;54.33
64687;BME280;51113;53.646;-113.674;2023-11-21T02:35:35;94711.19;;;-3.03;53.65
64687;BME280;51113;53.646;-113.674;2023-11-21T02:38:03;94753.88;;;-2.80;54.96
64687;BME280;51113;53.646;-113.674;2023-11-21T02:40:32;94750.53;;;-2.81;54.48
64687;BME280;51113;53.646;-113.674;2023-11-21T02:43:01;94730.41;;;-3.00;54.89
64687;BME280;51113;53.646;-113.674;2023-11-21T02:45:30;94763.53;;;-2.84;54.53
64687;BME280;51113;53.646;-113.674;2023-11-21T02:47:59;94730.06;;;-3.05;54.92
64687;BME280;51113;53.646;-113.674;2023-11-21T02:50:27;94741.78;;;-2.86;55.20
64687;BME280;51113;53.646;-113.674;2023-11-21T02:52:56;94719.47;;;-3.01;55.09
64687;BME280;51113;53.646;-113.674;2023-11-21T02:55:28;94734.97;;;-2.78;55.81
64687;BME280;51113;53.646;-113.674;2023-11-21T02:57:57;94703.44;;;-3.01;55.48
64687;BME280;51113;53.646;-113.674;2023-11-21T03:00:26;94751.31;;;-2.80;55.64
64687;BME280;51113;53.646;-113.674;2023-11-21T03:02:55;94744.03;;;-2.75;56.18
64687;BME280;51113;53.646;-113.674;2023-11-21T03:05:24;94749.13;;;-2.75;56.81
64687;BME280;51113;53.646;-113.674;2023-11-21T03:07:53;94724.09;;;-2.96;56.05
64687;BME280;51113;53.646;-113.674;2023-11-21T03:10:22;94725.19;;;-2.99;55.76
64687;BME280;51113;53.646;-113.674;2023-11-21T03:12:51;94747.31;;;-2.91;55.76
64687;BME280;51113;53.646;-113.674;2023-11-21T03:15:20;94722.59;;;-3.07;57.24
64687;BME280;51113;53.646;-113.674;2023-11-21T03:17:52;94699.66;;;-3.23;56.89
64687;BME280;51113;53.646;-113.674;2023-11-21T03:20:24;94745.75;;;-2.84;57.40
64687;BME280;51113;53.646;-113.674;2023-11-21T03:22:53;94739.69;;;-2.91;57.98
64687;BME280;51113;53.646;-113.674;2023-11-21T03:25:22;94704.63;;;-3.13;57.37
64687;BME280;51113;53.646;-113.674;2023-11-21T03:27:52;94728.69;;;-3.00;57.80
64687;BME280;51113;53.646;-113.674;2023-11-21T03:30:21;94728.22;;;-2.95;58.29
64687;BME280;51113;53.646;-113.674;2023-11-21T03:32:49;94699.22;;;-3.18;58.98
64687;BME280;51113;53.646;-113.674;2023-11-21T03:35:17;94720.56;;;-3.03;59.34
64687;BME280;51113;53.646;-113.674;2023-11-21T03:37:51;94720.38;;;-3.10;59.72
64687;BME280;51113;53.646;-113.674;2023-11-21T03:40:20;94720.84;;;-3.06;59.38
64687;BME280;51113;53.646;-113.674;2023-11-21T03:42:49;94730.38;;;-3.08;59.35
64687;BME280;51113;53.646;-113.674;2023-11-21T03:45:18;94678.00;;;-3.35;58.92
64687;BME280;51113;53.646;-113.674;2023-11-21T03:47:47;94689.31;;;-3.30;60.67
64687;BME280;51113;53.646;-113.674;2023-11-21T03:50:16;94714.28;;;-3.17;59.92
64687;BME280;51113;53.646;-113.674;2023-11-21T03:52:44;94701.69;;;-3.27;59.94
64687;BME280;51113;53.646;-113.674;2023-11-21T03:55:13;94709.50;;;-3.20;60.77
64687;BME280;51113;53.646;-113.674;2023-11-21T03:57:42;94675.25;;;-3.42;61.98
64687;BME280;51113;53.646;-113.674;2023-11-21T04:00:11;94658.44;;;-3.43;61.33
64687;BME280;51113;53.646;-113.674;2023-11-21T04:02:41;94678.84;;;-3.27;61.75
64687;BME280;51113;53.646;-113.674;2023-11-21T04:05:10;94676.94;;;-3.24;61.88
64687;BME280;51113;53.646;-113.674;2023-11-21T04:07:38;94679.84;;;-3.19;61.98
64687;BME280;51113;53.646;-113.674;2023-11-21T04:10:08;94642.41;;;-3.43;62.34
64687;BME280;51113;53.646;-113.674;2023-11-21T04:12:37;94644.16;;;-3.44;62.62
64687;BME280;51113;53.646;-113.674;2023-11-21T04:15:06;94670.28;;;-3.26;62.98
64687;BME280;51113;53.646;-113.674;2023-11-21T04:17:37;94670.78;;;-3.22;62.72
64687;BME280;51113;53.646;-113.674;2023-11-21T04:20:08;94671.41;;;-3.20;62.43
64687;BME280;51113;53.646;-113.674;2023-11-21T04:22:43;94661.72;;;-3.24;63.71
64687;BME280;51113;53.646;-113.674;2023-11-21T04:25:14;94654.56;;;-3.29;64.43
64687;BME280;51113;53.646;-113.674;2023-11-21T04:27:44;94626.53;;;-3.45;64.08
64687;BME280;51113;53.646;-113.674;2023-11-21T04:30:14;94622.59;;;-3.40;63.49
64687;BME280;51113;53.646;-113.674;2023-11-21T04:32:43;94639.66;;;-3.24;63.96
64687;BME280;51113;53.646;-113.674;2023-11-21T04:35:12;94626.16;;;-3.24;64.16
64687;BME280;51113;53.646;-113.674;2023-11-21T04:37:40;94620.28;;;-3.25;63.79
64687;BME280;51113;53.646;-113.674;2023-11-21T04:40:10;94603.47;;;-3.26;63.41
64687;BME280;51113;53.646;-113.674;2023-11-21T04:42:38;94603.66;;;-3.19;63.71
64687;BME280;51113;53.646;-113.674;2023-11-21T04:45:08;94595.72;;;-3.16;64.21
64687;BME280;51113;53.646;-113.674;2023-11-21T04:47:37;94595.41;;;-3.21;64.38
64687;BME280;51113;53.646;-113.674;2023-11-21T04:50:06;94600.47;;;-3.21;64.09
64687;BME280;51113;53.646;-113.674;2023-11-21T04:52:35;94614.16;;;-3.14;64.43
64687;BME280;51113;53.646;-113.674;2023-11-21T04:55:04;94598.31;;;-3.08;63.20
64687;BME280;51113;53.646;-113.674;2023-11-21T04:57:34;94598.56;;;-3.19;64.22
64687;BME280;51113;53.646;-113.674;2023-11-21T05:00:03;94588.13;;;-3.16;64.78
64687;BME280;51113;53.646;-113.674;2023-11-21T05:02:34;94552.16;;;-3.38;64.00
64687;BME280;51113;53.646;-113.674;2023-11-21T05:05:03;94578.91;;;-3.17;64.24
64687;BME280;51113;53.646;-113.674;2023-11-21T05:07:34;94561.06;;;-3.34;64.69
64687;BME280;51113;53.646;-113.674;2023-11-21T05:10:06;94608.47;;;-3.08;63.74
64687;BME280;51113;53.646;-113.674;2023-11-21T05:12:42;94612.59;;;-3.07;64.37
64687;BME280;51113;53.646;-113.674;2023-11-21T05:15:14;94602.59;;;-3.09;64.54
64687;BME280;51113;53.646;-113.674;2023-11-21T05:17:43;94599.25;;;-3.09;64.00
64687;BME280;51113;53.646;-113.674;2023-11-21T05:20:14;94595.41;;;-3.13;63.60
64687;BME280;51113;53.646;-113.674;2023-11-21T05:22:46;94588.44;;;-3.11;65.02
64687;BME280;51113;53.646;-113.674;2023-11-21T05:25:16;94544.09;;;-3.33;64.58
64687;BME280;51113;53.646;-113.674;2023-11-21T05:27:47;94560.03;;;-3.15;65.11
64687;BME280;51113;53.646;-113.674;2023-11-21T05:30:16;94561.59;;;-3.22;64.33
64687;BME280;51113;53.646;-113.674;2023-11-21T05:32:45;94567.47;;;-3.21;64.67
64687;BME280;51113;53.646;-113.674;2023-11-21T05:35:14;94548.41;;;-3.26;64.93
64687;BME280;51113;53.646;-113.674;2023-11-21T05:37:46;94564.63;;;-3.18;64.78
64687;BME280;51113;53.646;-113.674;2023-11-21T05:40:14;94545.09;;;-3.18;64.69
64687;BME280;51113;53.646;-113.674;2023-11-21T05:42:44;94554.75;;;-3.21;65.23
64687;BME280;51113;53.646;-113.674;2023-11-21T05:45:13;94534.75;;;-3.24;64.70
64687;BME280;51113;53.646;-113.674;2023-11-21T05:47:44;94524.91;;;-3.28;63.80
64687;BME280;51113;53.646;-113.674;2023-11-21T05:50:15;94531.59;;;-3.18;64.21
64687;BME280;51113;53.646;-113.674;2023-11-21T05:52:45;94523.81;;;-3.17;63.87
64687;BME280;51113;53.646;-113.674;2023-11-21T05:55:15;94513.97;;;-3.20;64.00
64687;BME280;51113;53.646;-113.674;2023-11-21T05:57:45;94468.69;;;-3.49;64.02
64687;BME280;51113;53.646;-113.674;2023-11-21T06:00:14;94483.94;;;-3.33;64.85
64687;BME280;51113;53.646;-113.674;2023-11-21T06:02:55;94487.31;;;-3.16;64.26
64687;BME280;51113;53.646;-113.674;2023-11-21T06:05:26;94463.34;;;-3.30;63.68
64687;BME280;51113;53.646;-113.674;2023-11-21T06:07:56;94479.56;;;-3.14;64.17
64687;BME280;51113;53.646;-113.674;2023-11-21T06:10:27;94467.31;;;-3.19;64.38
64687;BME280;51113;53.646;-113.674;2023-11-21T06:12:57;94474.16;;;-3.11;64.09
64687;BME280;51113;53.646;-113.674;2023-11-21T06:15:30;94467.81;;;-3.15;63.77
64687;BME280;51113;53.646;-113.674;2023-11-21T06:17:59;94461.78;;;-3.06;64.43
64687;BME280;51113;53.646;-113.674;2023-11-21T06:20:28;94441.16;;;-3.03;63.66
64687;BME280;51113;53.646;-113.674;2023-11-21T06:22:56;94422.09;;;-3.07;63.90
64687;BME280;51113;53.646;-113.674;2023-11-21T06:25:25;94432.09;;;-2.98;63.44
64687;BME280;51113;53.646;-113.674;2023-11-21T06:27:54;94414.97;;;-3.04;63.40
64687;BME280;51113;53.646;-113.674;2023-11-21T06:30:22;94374.78;;;-3.00;63.08
64687;BME280;51113;53.646;-113.674;2023-11-21T06:32:51;94389.06;;;-2.67;61.59
64687;BME280;51113;53.646;-113.674;2023-11-21T06:35:21;94378.56;;;-2.64;62.16
64687;BME280;51113;53.646;-113.674;2023-11-21T06:37:49;94376.31;;;-2.58;62.22
64687;BME280;51113;53.646;-113.674;2023-11-21T06:40:19;94395.69;;;-2.49;61.83
64687;BME280;51113;53.646;-113.674;2023-11-21T06:42:48;94394.56;;;-2.39;60.65
64687;BME280;51113;53.646;-113.674;2023-11-21T06:45:18;94398.84;;;-2.31;60.42
64687;BME280;51113;53.646;-113.674;2023-11-21T06:47:47;94381.06;;;-2.39;61.04
64687;BME280;51113;53.646;-113.674;2023-11-21T06:50:17;94344.25;;;-2.59;61.01
64687;BME280;51113;53.646;-113.674;2023-11-21T06:52:46;94369.13;;;-2.39;60.95
64687;BME280;51113;53.646;-113.674;2023-11-21T06:55:14;94345.78;;;-2.42;61.51
64687;BME280;51113;53.646;-113.674;2023-11-21T06:57:44;94351.66;;;-2.42;61.02
64687;BME280;51113;53.646;-113.674;2023-11-21T07:00:15;94325.63;;;-2.52;60.41
64687;BME280;51113;53.646;-113.674;2023-11-21T07:02:44;94331.69;;;-2.53;61.26
64687;BME280;51113;53.646;-113.674;2023-11-21T07:05:13;94295.03;;;-2.75;61.39
64687;BME280;51113;53.646;-113.674;2023-11-21T07:07:42;94307.38;;;-2.55;61.67
64687;BME280;51113;53.646;-113.674;2023-11-21T07:10:11;94285.19;;;-2.70;61.04
64687;BME280;51113;53.646;-113.674;2023-11-21T07:12:41;94275.50;;;-2.74;61.30
64687;BME280;51113;53.646;-113.674;2023-11-21T07:15:10;94316.41;;;-2.53;60.92
64687;BME280;51113;53.646;-113.674;2023-11-21T07:17:39;94303.88;;;-2.54;61.18
64687;BME280;51113;53.646;-113.674;2023-11-21T07:20:09;94308.00;;;-2.53;61.17
64687;BME280;51113;53.646;-113.674;2023-11-21T07:22:39;94309.09;;;-2.48;61.24
64687;BME280;51113;53.646;-113.674;2023-11-21T07:25:08;94312.47;;;-2.55;61.79
64687;BME280;51113;53.646;-113.674;2023-11-21T07:27:37;94273.16;;;-2.84;62.24
64687;BME280;51113;53.646;-113.674;2023-11-21T07:30:07;94301.03;;;-2.59;61.56
64687;BME280;51113;53.646;-113.674;2023-11-21T07:32:37;94303.09;;;-2.55;61.17
64687;BME280;51113;53.646;-113.674;2023-11-21T07:35:08;94275.13;;;-2.55;61.12
64687;BME280;51113;53.646;-113.674;2023-11-21T07:37:37;94267.66;;;-2.56;60.44
64687;BME280;51113;53.646;-113.674;2023-11-21T07:40:06;94262.91;;;-2.59;61.76
64687;BME280;51113;53.646;-113.674;2023-11-21T07:42:36;94264.66;;;-2.60;61.18
64687;BME280;51113;53.646;-113.674;2023-11-21T07:45:06;94255.41;;;-2.53;60.83
64687;BME280;51113;53.646;-113.674;2023-11-21T07:47:35;94247.00;;;-2.53;60.58
64687;BME280;51113;53.646;-113.674;2023-11-21T07:50:04;94250.19;;;-2.59;60.87
64687;BME280;51113;53.646;-113.674;2023-11-21T07:52:33;94257.78;;;-2.51;60.03
64687;BME280;51113;53.646;-113.674;2023-11-21T07:55:02;94252.03;;;-2.45;60.16
64687;BME280;51113;53.646;-113.674;2023-11-21T07:57:31;94248.53;;;-2.44;59.58
64687;BME280;51113;53.646;-113.674;2023-11-21T08:00:00;94230.59;;;-2.43;60.36
64687;BME280;51113;53.646;-113.674;2023-11-21T08:02:29;94234.25;;;-2.45;59.95
64687;BME280;51113;53.646;-113.674;2023-11-21T08:04:58;94237.72;;;-2.38;60.45
64687;BME280;51113;53.646;-113.674;2023-11-21T08:07:27;94245.38;;;-2.46;60.00
64687;BME280;51113;53.646;-113.674;2023-11-21T08:09:55;94237.53;;;-2.68;59.40
64687;BME280;51113;53.646;-113.674;2023-11-21T08:12:25;94234.03;;;-2.67;59.72
64687;BME280;51113;53.646;-113.674;2023-11-21T08:14:55;94257.00;;;-2.52;59.53
64687;BME280;51113;53.646;-113.674;2023-11-21T08:17:24;94233.94;;;-2.50;59.46
64687;BME280;51113;53.646;-113.674;2023-11-21T08:19:52;94247.91;;;-2.46;60.08
64687;BME280;51113;53.646;-113.674;2023-11-21T08:22:21;94201.50;;;-2.79;59.55
64687;BME280;51113;53.646;-113.674;2023-11-21T08:24:51;94204.31;;;-2.66;59.86
64687;BME280;51113;53.646;-113.674;2023-11-21T08:27:20;94192.56;;;-2.67;59.66
64687;BME280;51113;53.646;-113.674;2023-11-21T08:29:48;94220.88;;;-2.39;59.70
64687;BME280;51113;53.646;-113.674;2023-11-21T08:32:17;94214.38;;;-2.42;58.93
64687;BME280;51113;53.646;-113.674;2023-11-21T08:34:46;94189.72;;;-2.72;59.11
64687;BME280;51113;53.646;-113.674;2023-11-21T08:37:19;94175.13;;;-2.70;59.20
64687;BME280;51113;53.646;-113.674;2023-11-21T08:39:48;94197.38;;;-2.41;58.23
64687;BME280;51113;53.646;-113.674;2023-11-21T08:42:17;94201.50;;;-2.40;58.79
64687;BME280;51113;53.646;-113.674;2023-11-21T08:44:46;94159.63;;;-2.52;58.67
64687;BME280;51113;53.646;-113.674;2023-11-21T08:47:14;94179.06;;;-2.37;58.44
64687;BME280;51113;53.646;-113.674;2023-11-21T08:49:43;94170.00;;;-2.39;58.43
64687;BME280;51113;53.646;-113.674;2023-11-21T08:52:12;94151.88;;;-2.59;58.64
64687;BME280;51113;53.646;-113.674;2023-11-21T08:54:43;94180.84;;;-2.45;58.48
64687;BME280;51113;53.646;-113.674;2023-11-21T08:57:13;94123.69;;;-2.49;57.54
64687;BME280;51113;53.646;-113.674;2023-11-21T08:59:42;94158.03;;;-2.31;57.48
64687;BME280;51113;53.646;-113.674;2023-11-21T09:02:10;94122.44;;;-2.53;58.07
64687;BME280;51113;53.646;-113.674;2023-11-21T09:04:39;94118.16;;;-2.53;57.83
64687;BME280;51113;53.646;-113.674;2023-11-21T09:07:09;94089.22;;;-2.52;57.70
64687;BME280;51113;53.646;-113.674;2023-11-21T09:09:38;94122.91;;;-2.27;57.04
64687;BME280;51113;53.646;-113.674;2023-11-21T09:12:07;94105.25;;;-2.29;57.81
64687;BME280;51113;53.646;-113.674;2023-11-21T09:14:40;94074.44;;;-2.48;57.20
64687;BME280;51113;53.646;-113.674;2023-11-21T09:17:09;94094.75;;;-2.48;57.12
64687;BME280;51113;53.646;-113.674;2023-11-21T09:19:41;94089.69;;;-2.48;57.32
64687;BME280;51113;53.646;-113.674;2023-11-21T09:22:13;94105.94;;;-2.35;58.29
64687;BME280;51113;53.646;-113.674;2023-11-21T09:24:42;94088.09;;;-2.26;57.53
64687;BME280;51113;53.646;-113.674;2023-11-21T09:27:11;94076.22;;;-2.34;57.51
64687;BME280;51113;53.646;-113.674;2023-11-21T09:29:39;94047.00;;;-2.38;57.39
64687;BME280;51113;53.646;-113.674;2023-11-21T09:32:08;94036.91;;;-2.46;57.41
64687;BME280;51113;53.646;-113.674;2023-11-21T09:34:39;94044.19;;;-2.43;56.91
64687;BME280;51113;53.646;-113.674;2023-11-21T09:37:08;94063.97;;;-2.31;56.20
64687;BME280;51113;53.646;-113.674;2023-11-21T09:39:37;94041.31;;;-2.40;57.25
64687;BME280;51113;53.646;-113.674;2023-11-21T09:42:23;94050.19;;;-2.36;56.66
64687;BME280;51113;53.646;-113.674;2023-11-21T09:45:15;94076.94;;;-2.25;57.40
64687;BME280;51113;53.646;-113.674;2023-11-21T09:47:46;94073.97;;;-2.29;57.02
64687;BME280;51113;53.646;-113.674;2023-11-21T09:50:19;94086.50;;;-2.28;57.26
64687;BME280;51113;53.646;-113.674;2023-11-21T09:55:18;94032.63;;;-2.46;56.80
64687;BME280;51113;53.646;-113.674;2023-11-21T09:57:49;94052.03;;;-2.30;56.79
64687;BME280;51113;53.646;-113.674;2023-11-21T10:00:18;94042.03;;;-2.32;56.72
64687;BME280;51113;53.646;-113.674;2023-11-21T10:02:52;94031.59;;;-2.37;56.70
64687;BME280;51113;53.646;-113.674;2023-11-21T10:05:21;93998.75;;;-2.61;57.39
64687;BME280;51113;53.646;-113.674;2023-11-21T10:07:56;94034.66;;;-2.41;57.69
64687;BME280;51113;53.646;-113.674;2023-11-21T10:10:29;94008.84;;;-2.53;57.45
64687;BME280;51113;53.646;-113.674;2023-11-21T10:13:05;94018.25;;;-2.39;57.44
64687;BME280;51113;53.646;-113.674;2023-11-21T10:15:35;93997.13;;;-2.39;57.15
64687;BME280;51113;53.646;-113.674;2023-11-21T10:18:04;94014.47;;;-2.43;58.06
64687;BME280;51113;53.646;-113.674;2023-11-21T10:20:34;94006.41;;;-2.46;58.07
64687;BME280;51113;53.646;-113.674;2023-11-21T10:23:03;93992.22;;;-2.41;56.88
64687;BME280;51113;53.646;-113.674;2023-11-21T10:25:31;93993.00;;;-2.40;57.77
64687;BME280;51113;53.646;-113.674;2023-11-21T10:28:02;93986.78;;;-2.38;58.00
64687;BME280;51113;53.646;-113.674;2023-11-21T10:30:36;94001.59;;;-2.41;57.50
64687;BME280;51113;53.646;-113.674;2023-11-21T10:33:06;93972.47;;;-2.53;57.79
64687;BME280;51113;53.646;-113.674;2023-11-21T10:35:46;94013.63;;;-2.35;57.18
64687;BME280;51113;53.646;-113.674;2023-11-21T10:38:22;94025.03;;;-2.31;57.28
64687;BME280;51113;53.646;-113.674;2023-11-21T10:40:52;94031.59;;;-2.37;57.81
64687;BME280;51113;53.646;-113.674;2023-11-21T10:43:25;94040.91;;;-2.29;57.30
64687;BME280;51113;53.646;-113.674;2023-11-21T10:45:58;94016.00;;;-2.34;56.55
64687;BME280;51113;53.646;-113.674;2023-11-21T10:48:32;94026.59;;;-2.30;56.23
64687;BME280;51113;53.646;-113.674;2023-11-21T10:51:07;93982.56;;;-2.45;57.04
64687;BME280;51113;53.646;-113.674;2023-11-21T10:53:39;93968.34;;;-2.54;56.79
64687;BME280;51113;53.646;-113.674;2023-11-21T10:56:14;93983.97;;;-2.43;58.03
64687;BME280;51113;53.646;-113.674;2023-11-21T10:58:50;93970.66;;;-2.30;57.54
64687;BME280;51113;53.646;-113.674;2023-11-21T11:01:25;93938.19;;;-2.57;57.69
64687;BME280;51113;53.646;-113.674;2023-11-21T11:03:58;93958.03;;;-2.38;58.02
64687;BME280;51113;53.646;-113.674;2023-11-21T11:06:28;93910.78;;;-2.47;57.83
64687;BME280;51113;53.646;-113.674;2023-11-21T11:08:57;93911.22;;;-2.44;57.66
64687;BME280;51113;53.646;-113.674;2023-11-21T11:11:25;93922.44;;;-2.38;57.52
64687;BME280;51113;53.646;-113.674;2023-11-21T11:13:55;93895.94;;;-2.58;58.13
64687;BME280;51113;53.646;-113.674;2023-11-21T11:16:24;93852.56;;;-2.72;58.51
64687;BME280;51113;53.646;-113.674;2023-11-21T11:18:54;93841.09;;;-2.68;58.70
64687;BME280;51113;53.646;-113.674;2023-11-21T11:22:00;93857.56;;;-2.49;58.33
64687;BME280;51113;53.646;-113.674;2023-11-21T11:28:07;93847.41;;;-2.49;59.04
64687;BME280;51113;53.646;-113.674;2023-11-21T11:36:22;93831.09;;;-2.40;58.56
64687;BME280;51113;53.646;-113.674;2023-11-21T11:38:52;93802.16;;;-2.39;59.19
64687;BME280;51113;53.646;-113.674;2023-11-21T11:41:30;93786.41;;;-2.49;59.06
64687;BME280;51113;53.646;-113.674;2023-11-21T11:44:01;93773.25;;;-2.52;59.00
64687;BME280;51113;53.646;-113.674;2023-11-21T11:46:44;93800.16;;;-2.43;59.25
64687;BME280;51113;53.646;-113.674;2023-11-21T11:49:28;93812.13;;;-2.22;57.98
64687;BME280;51113;53.646;-113.674;2023-11-21T11:55:03;93804.56;;;-2.16;57.33
64687;BME280;51113;53.646;-113.674;2023-11-21T11:57:34;93823.59;;;-2.12;57.51
64687;BME280;51113;53.646;-113.674;2023-11-21T12:00:10;93800.28;;;-2.15;57.91
64687;BME280;51113;53.646;-113.674;2023-11-21T12:02:39;93779.84;;;-2.22;58.15
64687;BME280;51113;53.646;-113.674;2023-11-21T12:05:13;93801.06;;;-2.15;58.03
64687;BME280;51113;53.646;-113.674;2023-11-21T12:07:55;93807.47;;;-2.19;58.64
64687;BME280;51113;53.646;-113.674;2023-11-21T12:10:26;93792.75;;;-2.23;58.21
64687;BME280;51113;53.646;-113.674;2023-11-21T12:12:57;93740.75;;;-2.57;58.62
64687;BME280;51113;53.646;-113.674;2023-11-21T12:15:27;93767.72;;;-2.41;58.86
64687;BME280;51113;53.646;-113.674;2023-11-21T12:17:59;93758.94;;;-2.39;58.97
64687;BME280;51113;53.646;-113.674;2023-11-21T12:20:28;93786.47;;;-2.42;59.10
64687;BME280;51113;53.646;-113.674;2023-11-21T12:23:00;93826.19;;;-2.41;59.23
64687;BME280;51113;53.646;-113.674;2023-11-21T12:25:30;93780.94;;;-2.46;59.47
64687;BME280;51113;53.646;-113.674;2023-11-21T12:28:01;93763.94;;;-2.45;59.81
64687;BME280;51113;53.646;-113.674;2023-11-21T12:30:36;93744.75;;;-2.48;59.56
64687;BME280;51113;53.646;-113.674;2023-11-21T12:33:06;93761.41;;;-2.45;60.14
64687;BME280;51113;53.646;-113.674;2023-11-21T12:35:37;93697.78;;;-2.52;60.20
64687;BME280;51113;53.646;-113.674;2023-11-21T12:38:06;93718.56;;;-2.48;59.78
64687;BME280;51113;53.646;-113.674;2023-11-21T12:40:37;93755.88;;;-2.49;60.67
64687;BME280;51113;53.646;-113.674;2023-11-21T12:43:06;93749.06;;;-2.48;60.13
64687;BME280;51113;53.646;-113.674;2023-11-21T12:45:35;93713.41;;;-2.55;60.35
64687;BME280;51113;53.646;-113.674;2023-11-21T12:48:06;93770.97;;;-2.47;60.50
64687;BME280;51113;53.646;-113.674;2023-11-21T12:50:39;93715.59;;;-2.67;60.71
64687;BME280;51113;53.646;-113.674;2023-11-21T12:53:11;93670.25;;;-2.48;60.73
64687;BME280;51113;53.646;-113.674;2023-11-21T12:55:41;93650.50;;;-2.68;61.20
64687;BME280;51113;53.646;-113.674;2023-11-21T12:58:11;93663.78;;;-2.51;60.80
64687;BME280;51113;53.646;-113.674;2023-11-21T13:00:47;93573.06;;;-2.50;61.36